Time;durP1;ratioP1;P1;durP2;ratioP2;P2;SDS_P1;SDS_P2;PMS_P1;PMS_P2;Temp;Humidity;BMP_temperature;BMP_pressure;BME280_temperature;BME280_humidity;BME280_pressure;Samples;Min_cycle;Max_cycle;Signal;HPM_P1;HPM_P2
2022/11/20 00:02:45;;;;;;;0.40;0.40;;;13.50;78.50;;;;;;5091778;28;20192;-63
2022/11/20 00:05:34;;;;;;;0.40;0.40;;;13.50;78.70;;;;;;5090799;28;20216;-63
2022/11/20 00:08:22;;;;;;;0.40;0.40;;;13.50;78.20;;;;;;5092626;28;20210;-63
2022/11/20 00:11:12;;;;;;;0.40;0.40;;;13.40;78.40;;;;;;5091787;28;20204;-65
2022/11/20 00:14:03;;;;;;;0.40;0.40;;;13.40;78.60;;;;;;5091886;28;20199;-63
2022/11/20 00:16:51;;;;;;;0.40;0.40;;;13.30;78.60;;;;;;5092875;28;20821;-63
2022/11/20 00:19:39;;;;;;;0.40;0.40;;;13.30;78.80;;;;;;5092735;28;20200;-63
2022/11/20 00:22:28;;;;;;;0.40;0.40;;;13.10;78.80;;;;;;5105124;28;20215;-63
2022/11/20 00:25:17;;;;;;;10.57;9.50;;;13.20;78.90;;;;;;5106787;28;20298;-62
2022/11/20 00:28:05;;;;;;;0.40;0.40;;;13.20;79.50;;;;;;5106770;28;20287;-63
2022/11/20 00:30:53;;;;;;;0.40;0.40;;;13.20;79.40;;;;;;5096709;28;20203;-62
2022/11/20 00:33:41;;;;;;;1.50;1.50;;;13.10;78.60;;;;;;5100482;28;20675;-63
2022/11/20 00:36:32;;;;;;;0.40;0.40;;;13.20;79.30;;;;;;5080294;28;20217;-63
2022/11/20 00:39:22;;;;;;;0.40;0.40;;;13.10;79.10;;;;;;5084073;28;20514;-62
2022/11/20 00:42:10;;;;;;;0.97;0.97;;;13.30;80.70;;;;;;5084665;28;20426;-62
2022/11/20 00:44:58;;;;;;;0.40;0.40;;;13.50;80.30;;;;;;5084879;28;20205;-63
2022/11/20 00:47:46;;;;;;;0.40;0.40;;;13.60;80.40;;;;;;5081751;28;20267;-65
2022/11/20 00:50:34;;;;;;;0.40;0.40;;;13.90;80.20;;;;;;5083090;28;20228;-63
2022/11/20 00:53:22;;;;;;;0.40;0.40;;;14.00;79.90;;;;;;5078843;28;20703;-63
2022/11/20 00:56:14;;;;;;;0.40;0.40;;;13.90;79.40;;;;;;5085313;28;20217;-63
2022/11/20 00:59:02;;;;;;;0.40;0.40;;;13.90;79.20;;;;;;5087818;28;20677;-62
2022/11/20 01:01:50;;;;;;;0.60;0.60;;;14.00;78.30;;;;;;5086838;28;20200;-64
2022/11/20 01:04:38;;;;;;;0.40;0.40;;;14.00;77.60;;;;;;5089121;28;20257;-63
2022/11/20 01:07:26;;;;;;;0.40;0.40;;;13.90;77.70;;;;;;5088253;28;20224;-63
2022/11/20 01:10:14;;;;;;;0.40;0.40;;;13.90;77.70;;;;;;5085979;28;20224;-63
2022/11/20 01:16:15;;;;;;;0.40;0.40;;;13.90;78.70;;;;;;5075963;28;20220;-62
2022/11/20 01:19:05;;;;;;;0.40;0.40;;;13.90;78.40;;;;;;5089618;28;20232;-62
2022/11/20 01:21:54;;;;;;;0.40;0.40;;;13.90;77.90;;;;;;5088949;28;20250;-62
2022/11/20 01:24:42;;;;;;;0.40;0.40;;;13.80;77.90;;;;;;5089347;28;20207;-62
2022/11/20 01:27:30;;;;;;;3.72;3.25;;;13.80;77.20;;;;;;5088204;28;20207;-61
2022/11/20 01:30:20;;;;;;;0.40;0.40;;;13.70;77.70;;;;;;5087575;28;20201;-62
2022/11/20 01:33:08;;;;;;;0.40;0.40;;;13.70;77.80;;;;;;5087603;28;20227;-62
2022/11/20 01:36:04;;;;;;;1.07;1.07;;;13.60;77.00;;;;;;5096801;28;20289;-62
2022/11/20 01:38:53;;;;;;;0.40;0.40;;;13.50;77.80;;;;;;5095066;28;20302;-62
2022/11/20 01:44:58;;;;;;;0.40;0.40;;;13.40;78.40;;;;;;5094504;28;20326;-62
2022/11/20 01:47:49;;;;;;;0.40;0.40;;;13.30;78.20;;;;;;5094867;28;20279;-62
2022/11/20 01:50:37;;;;;;;0.40;0.40;;;13.30;77.60;;;;;;5093788;28;20196;-62
2022/11/20 01:53:30;;;;;;;0.40;0.40;;;13.40;78.10;;;;;;5094385;28;20565;-62
2022/11/20 01:56:19;;;;;;;0.40;0.40;;;13.20;78.70;;;;;;5094717;28;20226;-62
2022/11/20 01:59:09;;;;;;;0.40;0.40;;;13.20;79.70;;;;;;5094518;28;20275;-62
2022/11/20 02:01:57;;;;;;;0.40;0.40;;;13.10;78.80;;;;;;5089389;28;20301;-62
2022/11/20 02:04:48;;;;;;;0.40;0.40;;;13.10;78.10;;;;;;5093433;28;20325;-62
2022/11/20 02:07:36;;;;;;;0.40;0.40;;;13.10;78.30;;;;;;5094273;28;20199;-62
2022/11/20 02:10:24;;;;;;;0.40;0.40;;;13.10;79.10;;;;;;5094127;28;20196;-62
2022/11/20 02:16:24;;;;;;;0.40;0.40;;;13.20;79.00;;;;;;5093666;28;20504;-62
2022/11/20 02:19:20;;;;;;;3.43;2.93;;;13.30;80.50;;;;;;5093839;28;20246;-62
2022/11/20 02:22:15;;;;;;;0.40;0.40;;;13.50;80.40;;;;;;5094680;28;20211;-62
2022/11/20 02:25:06;;;;;;;0.40;0.40;;;13.80;79.80;;;;;;5093464;28;20333;-62
2022/11/20 02:27:54;;;;;;;0.40;0.40;;;13.80;79.70;;;;;;5092920;28;20223;-62
2022/11/20 02:30:42;;;;;;;0.40;0.40;;;13.90;80.10;;;;;;5091438;28;20196;-62
2022/11/20 02:33:30;;;;;;;0.40;0.40;;;13.90;79.00;;;;;;5088051;28;20238;-62
2022/11/20 02:36:18;;;;;;;0.40;0.40;;;13.90;78.60;;;;;;5094190;28;20319;-62
2022/11/20 02:39:06;;;;;;;0.40;0.40;;;14.00;78.30;;;;;;5099398;28;20237;-62
2022/11/20 02:41:57;;;;;;;0.40;0.40;;;13.90;77.30;;;;;;5093453;28;20200;-62
2022/11/20 02:44:45;;;;;;;0.40;0.40;;;13.90;77.90;;;;;;5092907;28;20233;-61
2022/11/20 02:47:33;;;;;;;0.50;0.50;;;13.80;77.60;;;;;;5080531;28;20196;-62
2022/11/20 02:50:22;;;;;;;0.50;0.50;;;13.80;77.70;;;;;;5092540;28;20333;-62
2022/11/20 02:53:10;;;;;;;0.40;0.40;;;13.80;77.80;;;;;;5091189;28;20200;-62
2022/11/20 02:55:58;;;;;;;0.40;0.40;;;13.80;77.30;;;;;;5090578;28;20694;-62
2022/11/20 02:58:47;;;;;;;0.40;0.40;;;13.60;77.60;;;;;;5091620;28;20306;-62
2022/11/20 03:01:35;;;;;;;0.40;0.40;;;13.80;78.00;;;;;;5091071;28;20278;-62
2022/11/20 03:04:23;;;;;;;0.40;0.40;;;13.70;77.10;;;;;;5092073;28;20202;-62
2022/11/20 03:07:11;;;;;;;1.60;1.48;;;13.60;77.00;;;;;;5092357;28;20325;-62
2022/11/20 03:09:59;;;;;;;0.40;0.40;;;13.60;77.50;;;;;;5091633;28;20199;-62
2022/11/20 03:12:47;;;;;;;0.40;0.40;;;13.30;77.20;;;;;;5092392;28;20242;-62
2022/11/20 03:15:38;;;;;;;1.42;1.40;;;13.30;78.00;;;;;;5091015;28;20247;-62
2022/11/20 03:18:28;;;;;;;0.40;0.40;;;13.40;77.90;;;;;;5091414;28;20550;-62
2022/11/20 03:21:17;;;;;;;0.40;0.40;;;13.40;77.90;;;;;;5090983;28;20282;-62
2022/11/20 03:24:05;;;;;;;0.40;0.40;;;13.30;77.70;;;;;;5092284;28;20694;-62
2022/11/20 03:26:53;;;;;;;0.40;0.40;;;13.20;78.30;;;;;;5091966;28;20307;-62
2022/11/20 03:29:41;;;;;;;0.40;0.40;;;13.20;77.90;;;;;;5091499;28;20196;-62
2022/11/20 03:32:31;;;;;;;0.40;0.40;;;13.10;78.00;;;;;;5092121;28;20232;-62
2022/11/20 03:35:19;;;;;;;0.40;0.40;;;13.20;78.90;;;;;;5078835;28;20284;-62
2022/11/20 03:38:07;;;;;;;0.40;0.40;;;13.10;78.80;;;;;;5072873;28;20665;-63
2022/11/20 03:40:59;;;;;;;0.82;0.82;;;13.10;78.40;;;;;;5072723;28;20193;-62
2022/11/20 03:43:50;;;;;;;0.40;0.40;;;13.10;79.10;;;;;;5072994;28;20318;-62
2022/11/20 03:46:39;;;;;;;0.40;0.40;;;13.10;78.60;;;;;;5087942;28;20329;-62
2022/11/20 03:49:28;;;;;;;0.40;0.40;;;13.20;79.30;;;;;;5092724;28;20741;-62
2022/11/20 03:52:16;;;;;;;0.40;0.40;;;13.30;79.70;;;;;;5093019;28;20282;-62
2022/11/20 03:55:05;;;;;;;0.40;0.40;;;13.30;79.40;;;;;;5093102;28;20771;-62
2022/11/20 03:57:53;;;;;;;0.40;0.40;;;13.40;79.30;;;;;;5092942;28;20281;-62
2022/11/20 04:00:41;;;;;;;0.40;0.40;;;13.50;79.50;;;;;;5092619;28;20200;-62
2022/11/20 04:03:29;;;;;;;0.40;0.40;;;13.40;78.60;;;;;;5092873;28;20235;-62
2022/11/20 04:06:22;;;;;;;0.40;0.40;;;13.40;78.70;;;;;;5093019;28;20657;-62
2022/11/20 04:09:10;;;;;;;0.40;0.40;;;13.40;78.40;;;;;;5091803;28;20321;-62
2022/11/20 04:11:58;;;;;;;0.50;0.50;;;13.80;79.40;;;;;;5092375;28;20192;-64
2022/11/20 04:14:46;;;;;;;0.40;0.40;;;13.50;78.20;;;;;;5092875;28;20261;-62
2022/11/20 04:17:34;;;;;;;0.40;0.40;;;13.50;78.80;;;;;;5092739;28;20329;-62
2022/11/20 04:20:22;;;;;;;0.40;0.40;;;13.50;78.70;;;;;;5092301;28;20333;-62
2022/11/20 04:23:11;;;;;;;0.40;0.40;;;13.60;78.50;;;;;;5092880;28;20337;-62
2022/11/20 04:26:03;;;;;;;0.40;0.40;;;13.50;78.60;;;;;;5093103;28;20226;-62
2022/11/20 04:28:51;;;;;;;0.40;0.40;;;13.50;78.30;;;;;;5092573;28;20509;-62
2022/11/20 04:31:39;;;;;;;0.40;0.40;;;13.40;78.00;;;;;;5094307;28;20280;-62
2022/11/20 04:34:27;;;;;;;0.40;0.40;;;13.40;78.20;;;;;;5097203;28;20274;-62
2022/11/20 04:37:15;;;;;;;0.40;0.40;;;13.40;78.50;;;;;;5096452;28;20282;-62
2022/11/20 04:40:06;;;;;;;1.53;1.53;;;13.40;78.20;;;;;;5096878;28;20223;-62
2022/11/20 04:42:54;;;;;;;0.50;0.50;;;13.40;78.60;;;;;;5095318;28;20806;-62
2022/11/20 04:45:42;;;;;;;0.40;0.40;;;13.30;77.70;;;;;;5096913;28;20611;-62
2022/11/20 04:48:30;;;;;;;2.20;1.90;;;13.30;78.60;;;;;;5096028;28;20750;-62
2022/11/20 04:51:18;;;;;;;0.40;0.40;;;13.20;78.60;;;;;;5096111;28;20310;-62
2022/11/20 04:54:06;;;;;;;0.40;0.40;;;13.20;78.90;;;;;;5095815;28;20723;-62
2022/11/20 04:56:56;;;;;;;0.40;0.40;;;13.10;78.50;;;;;;5095119;28;20251;-62
2022/11/20 04:59:44;;;;;;;0.40;0.40;;;13.00;78.70;;;;;;5094079;28;20279;-62
2022/11/20 05:02:33;;;;;;;0.40;0.40;;;13.00;78.80;;;;;;5095641;28;20200;-62
2022/11/20 05:05:21;;;;;;;0.40;0.40;;;13.10;79.20;;;;;;5094831;28;20246;-62
2022/11/20 05:08:09;;;;;;;0.40;0.40;;;13.00;78.40;;;;;;5096457;28;20684;-62
2022/11/20 05:11:01;;;;;;;0.40;0.40;;;13.10;79.00;;;;;;5094743;28;20508;-62
2022/11/20 05:13:51;;;;;;;0.40;0.40;;;13.20;80.60;;;;;;5095825;28;20275;-62
2022/11/20 05:16:39;;;;;;;0.40;0.40;;;13.30;80.50;;;;;;5095378;28;20715;-62
2022/11/20 05:19:27;;;;;;;0.40;0.40;;;13.60;80.20;;;;;;5094620;28;20257;-62
2022/11/20 05:22:15;;;;;;;0.40;0.40;;;13.70;79.60;;;;;;5095313;28;20210;-62
2022/11/20 05:25:04;;;;;;;0.40;0.40;;;14.00;79.00;;;;;;5095363;28;20206;-62
2022/11/20 05:27:52;;;;;;;0.40;0.40;;;14.10;79.20;;;;;;5095018;28;20318;-62
2022/11/20 05:30:41;;;;;;;0.40;0.40;;;14.20;78.90;;;;;;5094947;28;20275;-62
2022/11/20 05:33:29;;;;;;;0.40;0.40;;;14.30;78.70;;;;;;5095270;28;20278;-62
2022/11/20 05:36:18;;;;;;;0.40;0.40;;;14.30;78.40;;;;;;5094573;28;20216;-61
2022/11/20 05:39:06;;;;;;;0.40;0.40;;;14.40;78.30;;;;;;5094828;28;20250;-62
2022/11/20 05:44:56;;;;;;;0.40;0.40;;;14.40;77.50;;;;;;5095286;28;20239;-62
2022/11/20 05:47:46;;;;;;;0.97;0.97;;;14.40;77.80;;;;;;5094993;28;20617;-62
2022/11/20 05:50:34;;;;;;;0.40;0.40;;;14.30;77.50;;;;;;5094198;28;20329;-62
2022/11/20 05:53:22;;;;;;;0.40;0.40;;;14.30;76.90;;;;;;5094652;28;20310;-62
2022/11/20 05:56:13;;;;;;;0.40;0.40;;;14.20;77.60;;;;;;5093878;28;20691;-62
2022/11/20 05:59:01;;;;;;;0.40;0.40;;;14.20;77.70;;;;;;5093451;28;20317;-62
2022/11/20 06:01:49;;;;;;;0.40;0.40;;;14.20;77.70;;;;;;5094271;28;20613;-62
2022/11/20 06:04:38;;;;;;;0.40;0.40;;;14.10;77.50;;;;;;5095149;28;20582;-62
2022/11/20 06:07:26;;;;;;;2.45;2.25;;;14.00;77.50;;;;;;5104458;28;20192;-62
2022/11/20 06:10:14;;;;;;;0.40;0.40;;;14.00;76.80;;;;;;5114456;28;20210;-62
2022/11/20 06:13:02;;;;;;;0.40;0.40;;;13.90;77.10;;;;;;5114079;28;20239;-61
2022/11/20 06:15:51;;;;;;;0.40;0.40;;;13.80;77.70;;;;;;5114900;28;20279;-62
2022/11/20 06:18:39;;;;;;;0.40;0.40;;;13.80;77.70;;;;;;5108941;28;20211;-62
2022/11/20 06:21:28;;;;;;;0.40;0.40;;;13.70;77.20;;;;;;5095227;28;20222;-62
2022/11/20 06:24:17;;;;;;;0.40;0.40;;;13.70;77.90;;;;;;5095497;28;20279;-62
2022/11/20 06:27:05;;;;;;;0.40;0.40;;;13.60;78.10;;;;;;5094116;28;20285;-62
2022/11/20 06:29:53;;;;;;;0.40;0.40;;;13.50;77.70;;;;;;5095993;28;20239;-62
2022/11/20 06:32:41;;;;;;;0.40;0.40;;;13.40;77.90;;;;;;5094773;28;20222;-62
2022/11/20 06:35:29;;;;;;;0.40;0.40;;;13.60;78.70;;;;;;5093995;28;20291;-62
2022/11/20 06:38:19;;;;;;;0.40;0.40;;;13.40;78.80;;;;;;5094326;28;20231;-62
2022/11/20 06:41:08;;;;;;;0.40;0.40;;;13.30;78.70;;;;;;5095044;28;20573;-62
2022/11/20 06:43:56;;;;;;;0.40;0.40;;;13.30;78.20;;;;;;5094709;28;20279;-62
2022/11/20 06:46:44;;;;;;;0.40;0.40;;;13.30;78.70;;;;;;5093605;28;20312;-62
2022/11/20 06:49:34;;;;;;;0.40;0.40;;;13.30;78.50;;;;;;5093377;28;20207;-62
2022/11/20 06:52:22;;;;;;;0.40;0.40;;;13.30;78.30;;;;;;5094580;28;20326;-62
2022/11/20 06:55:11;;;;;;;3.07;2.17;;;13.20;79.20;;;;;;5092512;28;20308;-62
2022/11/20 06:57:59;;;;;;;2.10;2.00;;;13.20;78.80;;;;;;5093793;28;20233;-62
2022/11/20 07:00:47;;;;;;;0.40;0.40;;;13.30;80.20;;;;;;5091977;28;20206;-62
2022/11/20 07:03:35;;;;;;;0.70;0.70;;;13.40;80.10;;;;;;5093584;28;20199;-62
2022/11/20 07:06:23;;;;;;;0.40;0.40;;;13.60;80.00;;;;;;5093765;28;20696;-62
2022/11/20 07:09:11;;;;;;;0.40;0.40;;;13.90;79.80;;;;;;5092741;28;20563;-62
2022/11/20 07:12:01;;;;;;;0.40;0.40;;;13.90;79.40;;;;;;5093768;28;20301;-62
2022/11/20 07:14:49;;;;;;;0.40;0.40;;;14.10;79.10;;;;;;5093084;28;20210;-62
2022/11/20 07:17:37;;;;;;;0.40;0.40;;;14.20;78.90;;;;;;5092901;28;20282;-62
2022/11/20 07:20:25;;;;;;;0.40;0.40;;;14.40;78.70;;;;;;5093513;28;20241;-62
2022/11/20 07:23:13;;;;;;;0.47;0.47;;;14.30;78.50;;;;;;5093207;28;20210;-62
2022/11/20 07:26:04;;;;;;;0.40;0.40;;;14.30;78.90;;;;;;5093153;28;20707;-62
2022/11/20 07:28:53;;;;;;;0.40;0.40;;;14.40;78.10;;;;;;5092112;28;20253;-62
2022/11/20 07:31:42;;;;;;;0.40;0.40;;;14.40;78.00;;;;;;5092454;28;20223;-62
2022/11/20 07:34:30;;;;;;;2.47;1.83;;;14.40;77.50;;;;;;5092576;28;20664;-62
2022/11/20 07:37:18;;;;;;;0.40;0.40;;;14.30;77.20;;;;;;5093846;28;20219;-62
2022/11/20 07:40:07;;;;;;;0.40;0.40;;;14.30;77.20;;;;;;5093078;28;20211;-62
2022/11/20 07:42:56;;;;;;;0.40;0.40;;;14.30;76.80;;;;;;5094095;28;20286;-62
2022/11/20 07:45:45;;;;;;;0.60;0.60;;;14.30;77.60;;;;;;5092772;28;20227;-62
2022/11/20 07:48:34;;;;;;;0.40;0.40;;;14.20;77.30;;;;;;5092826;28;20207;-62
2022/11/20 07:51:22;;;;;;;0.40;0.40;;;14.20;77.30;;;;;;5092201;28;20282;-62
2022/11/20 07:54:10;;;;;;;0.40;0.40;;;14.20;77.20;;;;;;5093831;28;20755;-62
2022/11/20 07:56:58;;;;;;;0.40;0.40;;;14.10;77.10;;;;;;5093632;28;20216;-62
2022/11/20 07:59:46;;;;;;;0.40;0.40;;;14.10;77.20;;;;;;5092789;28;20549;-62
2022/11/20 08:02:37;;;;;;;0.40;0.40;;;14.00;77.20;;;;;;5092144;28;20274;-62
2022/11/20 08:05:25;;;;;;;0.40;0.40;;;14.00;77.20;;;;;;5092937;28;20307;-62
2022/11/20 08:08:13;;;;;;;0.40;0.40;;;13.90;77.60;;;;;;5093195;28;20250;-62
2022/11/20 08:14:12;;;;;;;0.40;0.40;;;13.80;77.50;;;;;;5092269;28;20283;-61
2022/11/20 08:17:00;;;;;;;0.40;0.40;;;13.80;77.60;;;;;;5093183;28;20601;-61
2022/11/20 08:19:50;;;;;;;0.40;0.40;;;13.60;77.50;;;;;;5093986;28;20196;-62
2022/11/20 08:22:38;;;;;;;0.40;0.40;;;13.60;77.70;;;;;;5093640;28;20388;-62
2022/11/20 08:25:26;;;;;;;0.40;0.40;;;13.60;78.00;;;;;;5093186;28;20248;-61
2022/11/20 08:28:14;;;;;;;0.50;0.50;;;13.50;77.80;;;;;;5092006;28;20196;-62
2022/11/20 08:31:09;;;;;;;0.87;0.87;;;13.50;78.00;;;;;;5092252;28;20204;-64
2022/11/20 08:33:58;;;;;;;0.40;0.40;;;13.40;77.90;;;;;;5092131;28;20196;-61
2022/11/20 08:36:47;;;;;;;0.40;0.40;;;13.30;78.20;;;;;;5092315;28;20227;-61
2022/11/20 08:39:35;;;;;;;0.50;0.50;;;13.30;78.20;;;;;;5090921;28;20444;-62
2022/11/20 08:42:23;;;;;;;0.40;0.40;;;13.30;78.20;;;;;;5090923;28;20264;-61
2022/11/20 08:45:11;;;;;;;0.40;0.40;;;13.30;78.30;;;;;;5090946;28;20316;-61
2022/11/20 08:48:01;;;;;;;0.40;0.40;;;13.20;78.20;;;;;;5091118;28;20326;-61
2022/11/20 08:50:49;;;;;;;0.40;0.40;;;13.20;78.00;;;;;;5091442;28;20228;-62
2022/11/20 08:53:39;;;;;;;0.40;0.40;;;13.30;79.00;;;;;;5091120;28;20238;-61
2022/11/20 08:56:27;;;;;;;0.40;0.40;;;13.20;79.40;;;;;;5089955;28;20541;-61
2022/11/20 08:59:15;;;;;;;1.03;1.03;;;13.20;78.70;;;;;;5090573;28;20227;-61
2022/11/20 09:02:23;;;;;;;0.40;0.40;;;13.20;79.50;;;;;;5091727;28;20519;-61
2022/11/20 09:05:11;;;;;;;0.40;0.40;;;13.40;80.30;;;;;;5090854;28;20212;-61
2022/11/20 09:08:00;;;;;;;0.40;0.40;;;13.50;80.10;;;;;;5090945;28;20572;-61
2022/11/20 09:10:53;;;;;;;0.40;0.40;;;13.70;79.90;;;;;;5090156;28;20250;-61
2022/11/20 09:13:41;;;;;;;0.40;0.40;;;13.80;79.50;;;;;;5090058;28;20418;-61
2022/11/20 09:16:29;;;;;;;0.40;0.40;;;14.00;79.40;;;;;;5091568;28;20583;-61
2022/11/20 09:19:17;;;;;;;0.40;0.40;;;14.10;79.10;;;;;;5094034;28;20281;-61
2022/11/20 09:22:23;;;;;;;0.40;0.40;;;14.10;78.80;;;;;;5095383;28;20259;-62
2022/11/20 09:25:11;;;;;;;0.50;0.50;;;14.20;78.50;;;;;;5094705;28;20307;-62
2022/11/20 09:28:00;;;;;;;0.40;0.40;;;14.20;78.20;;;;;;5095126;28;20250;-62
2022/11/20 09:30:48;;;;;;;0.40;0.40;;;14.20;77.30;;;;;;5094544;28;20757;-62
2022/11/20 09:33:37;;;;;;;2.20;2.00;;;14.20;77.50;;;;;;5095869;28;20334;-61
2022/11/20 09:36:25;;;;;;;0.40;0.40;;;14.10;77.10;;;;;;5075938;28;20251;-61
2022/11/20 09:39:13;;;;;;;0.40;0.40;;;14.10;77.70;;;;;;5074911;28;20225;-62
2022/11/20 09:42:13;;;;;;;0.40;0.40;;;14.10;77.70;;;;;;5075048;28;20276;-61
2022/11/20 09:45:16;;;;;;;0.40;0.40;;;14.00;86.40;;;;;;5077636;28;20284;-62
2022/11/20 09:48:19;;;;;;;0.40;0.40;;;14.00;77.80;;;;;;5079357;28;20246;-62
2022/11/20 09:51:16;;;;;;;0.40;0.40;;;14.00;77.60;;;;;;5076286;28;20288;-61
2022/11/20 09:54:15;;;;;;;0.40;0.40;;;13.90;77.60;;;;;;5074230;28;20548;-62
2022/11/20 09:57:09;;;;;;;0.40;0.40;;;13.90;77.40;;;;;;5076092;28;20224;-62
2022/11/20 10:00:01;;;;;;;0.40;0.40;;;13.80;77.30;;;;;;5074425;28;20228;-62
2022/11/20 10:02:56;;;;;;;0.40;0.40;;;13.80;76.30;;;;;;5067189;28;20208;-61
2022/11/20 10:05:48;;;;;;;0.40;0.40;;;13.70;77.10;;;;;;5074337;28;20273;-61
2022/11/20 10:08:42;;;;;;;0.40;0.40;;;13.70;77.70;;;;;;5073618;28;20286;-62
2022/11/20 10:11:39;;;;;;;1.37;1.37;;;13.60;77.10;;;;;;5073428;28;20279;-62
2022/11/20 10:14:36;;;;;;;0.40;0.40;;;13.60;77.00;;;;;;5074499;28;20252;-61
2022/11/20 10:17:38;;;;;;;0.40;0.40;;;13.60;77.40;;;;;;5075337;28;20311;-61
2022/11/20 10:20:33;;;;;;;1.05;1.05;;;13.50;78.40;;;;;;5073162;28;20279;-61
2022/11/20 10:23:42;;;;;;;0.40;0.40;;;13.50;78.20;;;;;;5073990;28;20275;-62
2022/11/20 10:26:41;;;;;;;0.40;0.40;;;13.40;77.70;;;;;;5073273;28;20225;-61
2022/11/20 10:29:34;;;;;;;0.40;0.40;;;13.40;77.50;;;;;;5073122;28;20801;-61
2022/11/20 10:32:35;;;;;;;0.40;0.40;;;13.40;77.80;;;;;;5074839;28;20441;-61
2022/11/20 10:35:27;;;;;;;0.40;0.40;;;13.40;78.20;;;;;;5087573;28;20710;-61
2022/11/20 10:38:21;;;;;;;0.40;0.40;;;13.40;77.60;;;;;;5094129;28;20216;-61
2022/11/20 10:41:26;;;;;;;0.40;0.40;;;13.40;78.90;;;;;;5094264;28;20454;-61
2022/11/20 10:45:00;;;;;;;0.40;0.40;;;13.40;78.40;;;;;;5093895;28;20306;-61
2022/11/20 10:47:27;;;;;;;0.40;0.40;;;13.30;77.30;;;;;;5072693;22;20716;-67
2022/11/20 10:50:21;;;;;;;0.40;0.40;;;13.40;78.70;;;;;;5052249;28;20545;-67
2022/11/20 10:53:21;;;;;;;0.40;0.40;;;13.30;78.70;;;;;;5052187;28;20202;-67
2022/11/20 10:56:18;;;;;;;0.40;0.40;;;13.30;77.70;;;;;;5052776;28;20264;-66
2022/11/20 10:59:33;;;;;;;0.40;0.40;;;13.30;78.80;;;;;;5051321;28;20539;-66
2022/11/20 11:02:23;;;;;;;0.40;0.40;;;13.30;78.60;;;;;;5053300;28;20229;-66
2022/11/20 11:05:28;;;;;;;0.40;0.40;;;13.40;78.90;;;;;;5053070;28;20269;-66
2022/11/20 11:08:19;;;;;;;0.40;0.40;;;13.40;78.80;;;;;;5052756;28;20197;-66
2022/11/20 11:11:21;;;;;;;0.40;0.40;;;13.40;78.20;;;;;;5052098;28;20258;-65
2022/11/20 11:14:11;;;;;;;0.40;0.40;;;13.40;78.30;;;;;;5052115;28;20283;-65
2022/11/20 11:16:59;;;;;;;0.40;0.40;;;13.30;78.80;;;;;;5051877;28;20694;-66
2022/11/20 11:20:01;;;;;;;0.40;0.40;;;13.30;78.50;;;;;;5052143;28;20277;-64
2022/11/20 11:22:52;;;;;;;0.40;0.40;;;13.30;78.30;;;;;;5032078;28;20197;-66
2022/11/20 11:25:41;;;;;;;0.40;0.40;;;13.30;83.30;;;;;;5032381;28;20194;-65
2022/11/20 11:28:30;;;;;;;0.40;0.40;;;13.20;78.50;;;;;;5033331;28;20277;-66
2022/11/20 11:31:24;;;;;;;0.40;0.40;;;13.10;78.40;;;;;;5031918;28;20435;-65
2022/11/20 11:34:14;;;;;;;0.40;0.40;;;13.30;78.10;;;;;;5036532;28;20283;-65
2022/11/20 11:37:04;;;;;;;0.40;0.40;;;13.20;78.60;;;;;;5051700;28;20280;-67
2022/11/20 11:39:52;;;;;;;0.40;0.40;;;13.20;78.60;;;;;;5051594;28;20287;-66
2022/11/20 11:43:04;;;;;;;0.40;0.40;;;13.20;78.30;;;;;;5051445;28;20740;-65
2022/11/20 11:45:54;;;;;;;0.40;0.40;;;13.30;78.60;;;;;;5051816;28;21035;-66
2022/11/20 11:48:42;;;;;;;0.40;0.40;;;13.30;78.70;;;;;;5051905;28;20193;-66
2022/11/20 11:51:56;;;;;;;0.40;0.40;;;13.30;78.40;;;;;;5051135;28;20432;-67
2022/11/20 11:54:50;;;;;;;0.40;0.40;;;13.40;78.50;;;;;;5051815;28;21015;-66
2022/11/20 11:57:46;;;;;;;0.50;0.50;;;13.40;79.60;;;;;;5051386;28;20601;-66
2022/11/20 12:00:38;;;;;;;0.50;0.50;;;13.50;79.50;;;;;;5051865;28;20398;-66
2022/11/20 12:03:31;;;;;;;0.50;0.50;;;13.50;79.20;;;;;;5049289;28;22161;-67
2022/11/20 12:06:20;;;;;;;0.40;0.40;;;13.60;78.70;;;;;;5051198;28;20932;-67
2022/11/20 12:09:11;;;;;;;0.40;0.40;;;13.60;77.80;;;;;;5050906;28;20440;-65
2022/11/20 12:12:06;;;;;;;0.40;0.40;;;13.60;78.00;;;;;;5051326;28;20315;-66
2022/11/20 12:14:56;;;;;;;0.40;0.40;;;13.60;77.80;;;;;;5051904;28;20212;-67
2022/11/20 12:17:46;;;;;;;0.43;0.43;;;13.60;77.70;;;;;;5051737;28;20510;-66
2022/11/20 12:20:41;;;;;;;0.40;0.40;;;13.60;78.00;;;;;;5052257;28;20237;-66
2022/11/20 12:23:37;;;;;;;0.40;0.40;;;13.60;78.10;;;;;;5051759;28;20695;-67
2022/11/20 12:26:41;;;;;;;0.40;0.40;;;13.60;78.10;;;;;;5051343;28;20252;-66
2022/11/20 12:29:39;;;;;;;0.40;0.40;;;13.60;77.70;;;;;;5050697;28;20540;-64
2022/11/20 12:32:44;;;;;;;0.40;0.40;;;13.50;78.20;;;;;;5052131;28;20581;-67
2022/11/20 12:36:02;;;;;;;0.40;0.40;;;13.50;78.10;;;;;;5051386;28;20383;-66
2022/11/20 12:39:08;;;;;;;0.40;0.40;;;13.50;77.90;;;;;;5045300;28;20303;-66
2022/11/20 12:45:32;;;;;;;0.40;0.40;;;13.40;78.80;;;;;;5050893;28;20229;-66
2022/11/20 12:48:39;;;;;;;0.40;0.40;;;13.40;78.60;;;;;;5051646;28;20200;-66
2022/11/20 12:51:48;;;;;;;0.40;0.40;;;13.30;78.80;;;;;;5050828;28;20215;-63
2022/11/20 12:54:54;;;;;;;0.40;0.40;;;13.40;79.30;;;;;;5055685;28;20677;-65
2022/11/20 12:57:50;;;;;;;0.50;0.50;;;13.30;79.00;;;;;;5054790;28;20759;-66
2022/11/20 13:00:44;;;;;;;0.40;0.40;;;13.30;79.40;;;;;;5054878;28;20231;-66
2022/11/20 13:03:42;;;;;;;0.40;0.40;;;13.30;79.70;;;;;;5054850;28;20240;-66
2022/11/20 13:06:30;;;;;;;0.40;0.40;;;13.30;79.00;;;;;;5054654;28;20229;-68
2022/11/20 13:09:22;;;;;;;0.40;0.40;;;13.50;79.40;;;;;;5053791;28;20243;-66
2022/11/20 13:12:16;;;;;;;3.33;3.13;;;13.40;80.10;;;;;;5054861;28;20276;-65
2022/11/20 13:15:15;;;;;;;0.50;0.50;;;13.50;80.10;;;;;;5055268;28;20258;-66
2022/11/20 13:18:08;;;;;;;0.40;0.40;;;13.60;79.50;;;;;;5070483;28;20204;-67
2022/11/20 13:20:56;;;;;;;0.50;0.50;;;13.60;79.80;;;;;;5074560;28;20468;-65
2022/11/20 13:23:45;;;;;;;0.40;0.40;;;13.70;79.50;;;;;;5073645;28;20290;-68
2022/11/20 13:26:34;;;;;;;0.40;0.40;;;13.80;79.50;;;;;;5074712;28;20220;-67
2022/11/20 13:29:22;;;;;;;0.40;0.40;;;13.80;78.70;;;;;;5073938;28;20239;-65
2022/11/20 13:32:15;;;;;;;0.40;0.40;;;13.80;78.80;;;;;;5073682;28;20297;-65
2022/11/20 13:35:05;;;;;;;0.40;0.40;;;13.80;78.60;;;;;;5073360;28;20199;-64
2022/11/20 13:38:02;;;;;;;0.40;0.40;;;13.80;78.70;;;;;;5074419;28;20252;-65
2022/11/20 13:40:55;;;;;;;0.40;0.40;;;13.80;78.80;;;;;;5074375;28;20232;-65
2022/11/20 13:43:47;;;;;;;0.40;0.40;;;13.80;78.80;;;;;;5074574;28;20197;-65
2022/11/20 13:46:42;;;;;;;0.40;0.40;;;13.70;78.60;;;;;;5074001;28;20229;-65
2022/11/20 13:49:33;;;;;;;0.40;0.40;;;13.80;78.80;;;;;;5074119;28;20613;-65
2022/11/20 13:52:46;;;;;;;0.40;0.40;;;13.80;78.70;;;;;;5074233;28;20601;-66
2022/11/20 13:55:40;;;;;;;0.40;0.40;;;13.80;78.60;;;;;;5074384;28;20610;-65
2022/11/20 13:58:45;;;;;;;0.40;0.40;;;13.70;78.40;;;;;;5059583;28;20202;-65
2022/11/20 14:01:35;;;;;;;0.40;0.40;;;13.70;78.60;;;;;;5054670;28;20349;-65
2022/11/20 14:04:29;;;;;;;0.40;0.40;;;13.60;78.70;;;;;;5054190;28;20201;-65
2022/11/20 14:07:19;;;;;;;0.50;0.50;;;13.70;78.80;;;;;;5053652;28;20283;-66
2022/11/20 14:10:23;;;;;;;0.40;0.40;;;13.60;78.90;;;;;;5054204;28;20198;-65
2022/11/20 14:13:20;;;;;;;0.40;0.40;;;13.60;79.10;;;;;;5054260;28;20200;-65
2022/11/20 14:16:10;;;;;;;0.40;0.40;;;13.50;78.90;;;;;;5054268;28;20221;-66
2022/11/20 14:19:24;;;;;;;0.40;0.40;;;13.40;79.10;;;;;;5054045;28;20251;-65
2022/11/20 14:22:19;;;;;;;0.40;0.40;;;13.40;79.70;;;;;;5052291;28;20456;-66
2022/11/20 14:25:21;;;;;;;0.40;0.40;;;13.40;79.60;;;;;;5053483;28;20285;-67
2022/11/20 14:28:18;;;;;;;0.40;0.40;;;13.50;79.90;;;;;;5053109;28;20205;-67
2022/11/20 14:31:21;;;;;;;0.40;0.40;;;13.40;79.20;;;;;;5053723;28;20429;-67
2022/11/20 14:34:16;;;;;;;0.40;0.40;;;13.40;79.30;;;;;;5053464;28;20474;-67
2022/11/20 14:37:06;;;;;;;0.40;0.40;;;13.50;79.70;;;;;;5053757;28;20517;-64
2022/11/20 14:40:00;;;;;;;0.40;0.40;;;13.50;80.20;;;;;;5052907;28;20470;-65
2022/11/20 14:42:48;;;;;;;0.40;0.40;;;13.60;80.10;;;;;;5053502;28;20284;-65
2022/11/20 14:45:37;;;;;;;0.40;0.40;;;13.40;78.90;;;;;;5053207;28;20504;-65
2022/11/20 14:48:32;;;;;;;2.93;2.40;;;13.70;79.20;;;;;;5052920;28;20197;-67
2022/11/20 14:51:31;;;;;;;0.40;0.40;;;13.70;79.10;;;;;;5053339;28;20205;-65
2022/11/20 14:54:21;;;;;;;0.40;0.40;;;13.70;79.00;;;;;;5051850;28;20198;-65
2022/11/20 14:57:22;;;;;;;0.40;0.40;;;13.70;79.00;;;;;;5052313;28;20229;-65
2022/11/20 15:00:21;;;;;;;0.40;0.40;;;13.70;78.90;;;;;;5052920;28;20308;-65
2022/11/20 15:03:16;;;;;;;0.40;0.40;;;13.70;79.40;;;;;;5052460;28;20288;-65
2022/11/20 15:06:05;;;;;;;0.40;0.40;;;13.80;79.10;;;;;;5052955;28;20283;-66
2022/11/20 15:08:56;;;;;;;0.40;0.40;;;13.70;78.80;;;;;;5052525;28;20772;-64
2022/11/20 15:11:54;;;;;;;0.40;0.40;;;13.70;79.10;;;;;;5051474;28;20249;-65
2022/11/20 15:14:43;;;;;;;0.40;0.40;;;13.70;78.70;;;;;;5045807;28;20283;-66